createdAt,value
2022-08-03T00:01:49.661Z,99591.16
2022-08-03T00:04:16.542Z,99562.97
2022-08-03T00:06:43.393Z,99592.16
2022-08-03T00:09:10.729Z,99604.00
2022-08-03T00:11:38.411Z,99607.00
2022-08-03T00:14:09.102Z,99595.16
2022-08-03T00:16:36.060Z,99609.91
2022-08-03T00:19:03.433Z,99605.25
2022-08-03T00:21:30.348Z,99602.59
2022-08-03T00:23:57.234Z,99603.69
2022-08-03T00:26:23.984Z,99605.06
2022-08-03T00:28:51.106Z,99606.41
2022-08-03T00:31:22.353Z,99601.00
2022-08-03T00:34:04.618Z,99596.69
2022-08-03T00:36:32.955Z,99606.63
2022-08-03T00:38:59.743Z,99605.28
2022-08-03T00:41:26.515Z,99594.50
2022-08-03T00:43:53.262Z,99596.09
2022-08-03T00:46:22.440Z,99597.44
2022-08-03T00:48:50.399Z,99602.53
2022-08-03T00:51:18.239Z,99587.16
2022-08-03T00:53:45.881Z,99603.28
2022-08-03T00:56:16.699Z,99597.63
2022-08-03T00:58:47.579Z,99596.84
2022-08-03T01:01:15.398Z,99589.34
2022-08-03T01:03:42.330Z,99597.22
2022-08-03T01:06:11.807Z,99603.72
2022-08-03T01:08:47.542Z,99604.81
2022-08-03T01:11:32.473Z,99606.72
2022-08-03T01:14:40.063Z,99600.50
2022-08-03T01:17:19.458Z,99600.50
2022-08-03T01:20:07.092Z,99601.03
2022-08-03T01:23:21.325Z,99605.09
2022-08-03T01:26:07.134Z,99598.38
2022-08-03T01:28:52.591Z,99598.38
2022-08-03T01:31:26.208Z,99603.81
2022-08-03T01:34:01.457Z,99596.78
2022-08-03T01:36:36.664Z,99593.81
2022-08-03T01:39:09.597Z,99592.19
2022-08-03T01:41:42.403Z,99592.41
2022-08-03T01:44:29.942Z,99595.41
2022-08-03T01:47:02.987Z,99590.84
2022-08-03T01:49:34.031Z,99596.22
2022-08-03T01:52:05.020Z,99599.97
2022-08-03T01:54:41.015Z,99604.84
2022-08-03T01:57:09.738Z,99604.88
2022-08-03T01:59:38.905Z,99604.91
2022-08-03T02:02:29.892Z,99607.84
2022-08-03T02:04:57.694Z,99612.44
2022-08-03T02:07:26.896Z,99613.53
2022-08-03T02:09:55.200Z,99610.56
2022-08-03T02:12:25.011Z,99605.91
2022-08-03T02:14:52.226Z,99601.63
2022-08-03T02:17:39.385Z,99600.00
2022-08-03T02:20:09.177Z,99605.41
2022-08-03T02:22:39.278Z,99606.78
2022-08-03T02:25:10.669Z,99595.44
2022-08-03T02:27:43.816Z,99611.66
2022-08-03T02:30:12.734Z,99605.97
2022-08-03T02:32:42.672Z,99601.13
2022-08-03T02:35:15.487Z,99605.16
2022-08-03T02:37:49.778Z,99611.66
2022-08-03T02:40:19.314Z,99603.00
2022-08-03T02:42:47.328Z,99601.63
2022-08-03T02:45:17.110Z,99608.41
2022-08-03T02:47:53.422Z,99600.03
2022-08-03T02:50:24.722Z,99608.13
2022-08-03T02:52:53.410Z,99617.59
2022-08-03T02:55:23.027Z,99611.34
2022-08-03T02:57:51.568Z,99607.56
2022-08-03T03:00:19.648Z,99621.06
2022-08-03T03:02:58.118Z,99629.47
2022-08-03T03:05:54.865Z,99621.59
2022-08-03T03:08:18.866Z,99622.69
2022-08-03T03:10:53.256Z,99623.53
2022-08-03T03:13:22.770Z,99630.81
2022-08-03T03:15:50.975Z,99633.22
2022-08-03T03:18:22.225Z,99622.16
2022-08-03T03:20:51.783Z,99622.94
2022-08-03T03:23:20.401Z,99635.94
2022-08-03T03:25:47.641Z,99633.50
2022-08-03T03:28:15.122Z,99638.38
2022-08-03T03:30:42.426Z,99635.63
2022-08-03T03:33:09.148Z,99640.78
2022-08-03T03:35:38.830Z,99651.56
2022-08-03T03:38:07.214Z,99658.34
2022-08-03T03:40:36.495Z,99650.53
2022-08-03T03:43:04.016Z,99662.94
2022-08-03T03:45:31.531Z,99656.72
2022-08-03T03:48:00.676Z,99653.50
2022-08-03T03:50:28.421Z,99664.56
2022-08-03T03:52:55.140Z,99648.06
2022-08-03T03:55:21.939Z,99660.75
2022-08-03T03:57:48.700Z,99661.50
2022-08-03T04:00:18.036Z,99657.69
2022-08-03T04:02:47.856Z,99652.28
2022-08-03T04:05:34.139Z,99660.19
2022-08-03T04:08:25.090Z,99662.88
2022-08-03T04:11:16.081Z,99663.34
2022-08-03T04:13:57.284Z,99670.31
2022-08-03T04:16:33.798Z,99675.47
2022-08-03T04:19:08.360Z,99673.00
2022-08-03T04:21:38.278Z,99677.56
2022-08-03T04:24:08.662Z,99679.69
2022-08-03T04:26:39.673Z,99678.06
2022-08-03T04:29:08.062Z,99683.41
2022-08-03T04:31:35.673Z,99647.53
2022-08-03T04:34:03.382Z,99677.69
2022-08-03T04:36:33.964Z,99682.75
2022-08-03T04:39:18.472Z,99672.78
2022-08-03T04:42:07.156Z,99678.06
2022-08-03T04:44:39.156Z,99682.09
2022-08-03T04:47:05.992Z,99679.84
2022-08-03T04:49:33.406Z,99684.72
2022-08-03T04:52:00.366Z,99675.84
2022-08-03T04:54:27.140Z,99672.84
2022-08-03T04:56:53.866Z,99649.25
2022-08-03T04:59:20.673Z,99685.59
2022-08-03T05:01:47.615Z,99679.56
2022-08-03T05:04:14.798Z,99667.06
2022-08-03T05:06:48.132Z,99689.34
2022-08-03T05:09:50.055Z,99673.44
2022-08-03T05:12:08.476Z,99682.06
2022-08-03T05:14:37.896Z,99680.25
2022-08-03T05:17:05.973Z,99685.03
2022-08-03T05:19:33.329Z,99674.53
2022-08-03T05:22:00.189Z,99689.88
2022-08-03T05:24:27.483Z,99686.34
2022-08-03T05:26:54.282Z,99683.41
2022-08-03T05:29:21.319Z,99688.69
2022-08-03T05:31:48.066Z,99694.22
2022-08-03T05:34:15.087Z,99702.22
2022-08-03T05:36:41.869Z,99696.31
2022-08-03T05:39:08.580Z,99699.88
2022-08-03T05:41:37.063Z,99715.06
2022-08-03T05:44:04.939Z,99714.47
2022-08-03T05:46:32.264Z,99705.47
2022-08-03T05:48:59.185Z,99709.59
2022-08-03T05:51:26.015Z,99712.59
2022-08-03T05:53:52.801Z,99700.47
2022-08-03T05:56:23.658Z,99715.59
2022-08-03T05:58:51.925Z,99717.22
2022-08-03T06:01:21.953Z,99713.34
2022-08-03T06:03:50.270Z,99718.72
2022-08-03T06:06:17.115Z,99718.84
2022-08-03T06:08:45.056Z,99709.84
2022-08-03T06:11:12.452Z,99717.78
2022-08-03T06:13:39.519Z,99709.91
2022-08-03T06:16:06.458Z,99715.53
2022-08-03T06:18:33.373Z,99712.94
2022-08-03T06:21:15.003Z,99709.41
2022-08-03T06:23:54.553Z,99720.22
2022-08-03T06:26:23.552Z,99710.56
2022-08-03T06:28:52.831Z,99715.31
2022-08-03T06:31:24.000Z,99716.94
2022-08-03T06:34:33.597Z,99713.13
2022-08-03T06:36:38.112Z,99695.47
2022-08-03T06:39:05.555Z,99711.75
2022-08-03T06:41:38.199Z,99709.41
2022-08-03T06:44:11.495Z,99704.78
2022-08-03T06:46:38.238Z,99714.31
2022-08-03T06:49:05.087Z,99703.28
2022-08-03T06:52:05.765Z,99714.69
2022-08-03T06:54:18.994Z,99725.59
2022-08-03T06:56:45.771Z,99726.16
2022-08-03T07:00:09.680Z,99727.31
2022-08-03T07:01:59.357Z,99715.72
2022-08-03T07:04:26.196Z,99721.72
2022-08-03T07:06:52.905Z,99721.34
2022-08-03T07:09:19.668Z,99728.94
2022-08-03T07:11:46.437Z,99714.91
2022-08-03T07:14:13.182Z,99717.66
2022-08-03T07:16:39.947Z,99715.72
2022-08-03T07:19:06.696Z,99719.84
2022-08-03T07:21:33.437Z,99685.78
2022-08-03T07:24:00.228Z,99725.09
2022-08-03T07:26:26.997Z,99723.09
2022-08-03T07:28:53.771Z,99717.84
2022-08-03T07:31:20.872Z,99719.94
2022-08-03T07:33:47.649Z,99716.19
2022-08-03T07:36:14.564Z,99715.69
2022-08-03T07:38:41.390Z,99729.13
2022-08-03T07:41:08.097Z,99720.88
2022-08-03T07:43:34.814Z,99731.63
2022-08-03T07:46:01.574Z,99736.44
2022-08-03T07:48:28.302Z,99729.22
2022-08-03T07:50:55.009Z,99736.69
2022-08-03T07:53:25.813Z,99727.28
2022-08-03T07:55:52.557Z,99712.78
2022-08-03T07:58:23.958Z,99729.28
2022-08-03T08:00:53.684Z,99719.50
2022-08-03T08:03:22.039Z,99727.56
2022-08-03T08:05:49.801Z,99729.28
2022-08-03T08:08:16.677Z,99733.47
2022-08-03T08:10:58.417Z,99726.44
2022-08-03T08:13:25.738Z,99724.31
2022-08-03T08:15:52.499Z,99737.97
2022-08-03T08:18:19.302Z,99728.41
2022-08-03T08:20:46.326Z,99736.09
2022-08-03T08:23:41.613Z,99741.25
2022-08-03T08:25:59.718Z,99727.66
2022-08-03T08:28:32.796Z,99726.50
2022-08-03T08:31:00.872Z,99730.19
2022-08-03T08:33:42.214Z,99726.66
2022-08-03T08:36:15.536Z,99721.13
2022-08-03T08:38:44.680Z,99714.31
2022-08-03T08:41:12.898Z,99706.69
2022-08-03T08:43:40.214Z,99717.19
2022-08-03T08:46:08.548Z,99726.09
2022-08-03T08:48:40.553Z,99711.91
2022-08-03T08:51:08.911Z,99712.28
2022-08-03T08:53:38.482Z,99719.69
2022-08-03T08:56:07.857Z,99713.25
2022-08-03T08:58:38.797Z,99705.72
2022-08-03T09:01:05.892Z,99716.47
2022-08-03T09:03:35.988Z,99710.75
2022-08-03T09:06:03.292Z,99713.66
2022-08-03T09:08:31.919Z,99707.53
2022-08-03T09:10:58.865Z,99702.63
2022-08-03T09:13:25.831Z,99716.50
2022-08-03T09:16:12.195Z,99710.81
2022-08-03T09:18:39.955Z,99709.81
2022-08-03T09:21:32.099Z,99701.13
2022-08-03T09:24:03.871Z,99707.88
2022-08-03T09:26:35.519Z,99697.72
2022-08-03T09:29:14.917Z,99697.94
2022-08-03T09:31:47.090Z,99692.31
2022-08-03T09:34:16.517Z,99696.47
2022-08-03T09:36:46.524Z,99696.34
2022-08-03T09:39:16.578Z,99702.34
2022-08-03T09:41:46.346Z,99700.78
2022-08-03T09:44:24.453Z,99687.63
2022-08-03T09:46:56.341Z,99695.41
2022-08-03T09:49:24.545Z,99694.03
2022-08-03T09:52:32.305Z,99684.34
2022-08-03T09:54:39.771Z,99666.00
2022-08-03T09:57:06.823Z,99669.56
2022-08-03T09:59:34.846Z,99670.47
2022-08-03T10:02:02.074Z,99675.91
2022-08-03T10:04:29.473Z,99671.19
2022-08-03T10:07:09.448Z,99670.63
2022-08-03T10:09:38.352Z,99665.13
2022-08-03T10:12:09.795Z,99667.06
2022-08-03T10:14:42.062Z,99658.91
2022-08-03T10:17:09.906Z,99659.53
2022-08-03T10:19:36.814Z,99650.81
2022-08-03T10:22:15.510Z,99653.53
2022-08-03T10:25:04.201Z,99651.66
2022-08-03T10:27:34.941Z,99659.63
2022-08-03T10:30:05.064Z,99655.19
2022-08-03T10:32:35.481Z,99646.44
2022-08-03T10:35:20.075Z,99649.38
2022-08-03T10:38:01.822Z,99647.81
2022-08-03T10:40:49.607Z,99623.66
2022-08-03T10:43:26.095Z,99639.63
2022-08-03T10:45:53.253Z,99631.41
2022-08-03T10:48:20.895Z,99636.13
2022-08-03T10:50:50.812Z,99630.09
2022-08-03T10:53:34.836Z,99633.75
2022-08-03T10:56:21.629Z,99626.03
2022-08-03T10:59:08.958Z,99624.69
2022-08-03T11:02:00.420Z,99627.13
2022-08-03T11:04:29.924Z,99615.00
2022-08-03T11:07:26.559Z,99613.28
2022-08-03T11:09:55.867Z,99609.94
2022-08-03T11:12:31.058Z,99601.34
2022-08-03T11:15:05.071Z,99604.22
2022-08-03T11:17:46.573Z,99613.03
2022-08-03T11:20:46.155Z,99605.13
2022-08-03T11:23:14.046Z,99613.75
2022-08-03T11:26:09.093Z,99606.22
2022-08-03T11:28:36.026Z,99592.84
2022-08-03T11:31:51.487Z,99605.34
2022-08-03T11:34:18.764Z,99583.84
2022-08-03T11:37:21.678Z,99596.84
2022-08-03T11:39:50.713Z,99585.59
2022-08-03T11:42:23.581Z,99605.88
2022-08-03T11:44:51.967Z,99544.28
2022-08-03T11:47:21.101Z,99577.53
2022-08-03T11:49:49.451Z,99582.84
2022-08-03T11:52:19.668Z,99590.78
2022-08-03T11:54:56.775Z,99573.22
2022-08-03T11:59:10.818Z,99593.44
2022-08-03T12:00:28.797Z,99576.44
2022-08-03T12:02:59.500Z,99579.34
2022-08-03T12:05:35.347Z,99583.97
2022-08-03T12:08:03.377Z,99566.00
2022-08-03T12:10:32.322Z,99579.44
2022-08-03T12:13:00.912Z,99572.81
2022-08-03T12:15:29.556Z,99570.56
2022-08-03T12:17:57.918Z,99564.53
2022-08-03T12:20:34.430Z,99565.00
2022-08-03T12:23:06.796Z,99575.44
2022-08-03T12:25:38.774Z,99566.84
2022-08-03T12:28:37.266Z,99563.59
2022-08-03T12:31:07.585Z,99564.03
2022-08-03T12:34:00.435Z,99561.44
2022-08-03T12:36:28.192Z,99554.66
2022-08-03T12:39:09.307Z,99552.25
2022-08-03T12:41:38.444Z,99553.16
2022-08-03T12:44:06.807Z,99548.09
2022-08-03T12:46:42.742Z,99543.88
2022-08-03T12:49:20.125Z,99543.56
2022-08-03T12:51:46.968Z,99531.84
2022-08-03T12:54:24.704Z,99528.63
2022-08-03T12:57:01.962Z,99542.34
2022-08-03T12:59:40.721Z,99541.34
2022-08-03T13:02:18.881Z,99536.50
2022-08-03T13:04:47.772Z,99538.75
2022-08-03T13:07:15.845Z,99537.63
2022-08-03T13:09:47.575Z,99537.00
2022-08-03T13:12:22.369Z,99523.50
2022-08-03T13:14:52.187Z,99532.94
2022-08-03T13:17:20.256Z,99526.84
2022-08-03T13:19:48.129Z,99521.91
2022-08-03T13:22:25.989Z,99523.13
2022-08-03T13:24:57.808Z,99516.31
2022-08-03T13:28:03.759Z,99514.91
2022-08-03T13:30:12.506Z,99520.84
2022-08-03T13:32:39.505Z,99514.81
2022-08-03T13:35:07.652Z,99524.69
2022-08-03T13:37:34.518Z,99521.47
2022-08-03T13:40:03.758Z,99522.16
2022-08-03T13:42:34.348Z,99519.75
2022-08-03T13:45:02.503Z,99518.97
2022-08-03T13:47:29.430Z,99517.00
2022-08-03T13:50:01.066Z,99522.19
2022-08-03T13:52:31.012Z,99493.97
2022-08-03T13:54:58.616Z,99516.59
2022-08-03T13:58:02.299Z,99514.41
2022-08-03T14:00:12.645Z,99516.22
2022-08-03T14:02:39.424Z,99507.94
2022-08-03T14:05:06.487Z,99515.34
2022-08-03T14:07:33.381Z,99511.72
2022-08-03T14:10:01.843Z,99504.31
2022-08-03T14:12:28.673Z,99511.16
2022-08-03T14:14:58.299Z,99505.41
2022-08-03T14:17:27.996Z,99508.97
2022-08-03T14:20:38.798Z,99506.78
2022-08-03T14:22:56.758Z,99495.41
2022-08-03T14:25:23.646Z,99500.91
2022-08-03T14:27:50.477Z,99499.13
2022-08-03T14:30:17.498Z,99500.06
2022-08-03T14:32:44.296Z,99500.09
2022-08-03T14:35:11.075Z,99503.72
2022-08-03T14:37:37.845Z,99491.72
2022-08-03T14:40:05.626Z,99487.47
2022-08-03T14:42:32.876Z,99495.28
2022-08-03T14:45:03.600Z,99494.81
2022-08-03T14:47:34.168Z,99491.72
2022-08-03T14:50:38.415Z,99484.19
2022-08-03T14:53:07.714Z,99485.66
2022-08-03T14:55:38.947Z,99492.00
2022-08-03T14:58:19.721Z,99482.59
2022-08-03T15:00:47.678Z,99482.13
2022-08-03T15:03:16.639Z,99481.22
2022-08-03T15:05:44.814Z,99475.72
2022-08-03T15:08:11.763Z,99487.97
2022-08-03T15:10:44.487Z,99474.81
2022-08-03T15:13:13.213Z,99471.94
2022-08-03T15:15:40.901Z,99487.63
2022-08-03T15:18:08.023Z,99468.84
2022-08-03T15:20:50.420Z,99465.06
2022-08-03T15:23:17.606Z,99482.34
2022-08-03T15:26:03.908Z,99483.91
2022-08-03T15:28:32.719Z,99470.06
2022-08-03T15:31:00.258Z,99480.13
2022-08-03T15:33:27.223Z,99465.81
2022-08-03T15:35:54.351Z,99479.94
2022-08-03T15:38:26.021Z,99482.22
2022-08-03T15:40:54.805Z,99469.16
2022-08-03T15:43:25.210Z,99478.28
2022-08-03T15:46:12.816Z,99476.38
2022-08-03T15:48:39.787Z,99481.16
2022-08-03T15:51:06.990Z,99470.19
2022-08-03T15:53:34.139Z,99473.94
2022-08-03T15:56:05.167Z,99472.34
2022-08-03T15:59:04.270Z,99471.19
2022-08-03T16:01:21.624Z,99457.13
2022-08-03T16:03:48.468Z,99462.25
2022-08-03T16:06:15.252Z,99480.94
2022-08-03T16:08:42.065Z,99474.75
2022-08-03T16:11:08.895Z,99478.19
2022-08-03T16:14:05.516Z,99479.88
2022-08-03T16:16:22.502Z,99483.94
2022-08-03T16:18:49.228Z,99476.31
2022-08-03T16:21:16.984Z,99492.09
2022-08-03T16:23:47.313Z,99485.38
2022-08-03T16:26:14.622Z,99484.63
2022-08-03T16:28:41.668Z,99484.25
2022-08-03T16:31:09.256Z,99492.22
2022-08-03T16:33:36.347Z,99492.66
2022-08-03T16:36:03.695Z,99460.75
2022-08-03T16:38:30.725Z,99484.91
2022-08-03T16:40:57.664Z,99497.00
2022-08-03T16:43:24.879Z,99501.88
2022-08-03T16:45:52.314Z,99499.47
2022-08-03T16:48:19.382Z,99492.59
2022-08-03T16:50:46.323Z,99502.78
2022-08-03T16:53:16.619Z,99503.13
2022-08-03T16:55:53.411Z,99507.69
2022-08-03T16:58:41.540Z,99503.19
2022-08-03T17:01:22.204Z,99516.22
2022-08-03T17:04:02.377Z,99521.19
2022-08-03T17:06:36.164Z,99524.88
2022-08-03T17:12:02.781Z,99519.47
2022-08-03T17:14:29.893Z,99522.25
2022-08-03T17:17:03.831Z,99531.28
2022-08-03T17:19:32.548Z,99531.47
2022-08-03T17:22:09.075Z,99527.47
2022-08-03T17:24:40.953Z,99535.06
2022-08-03T17:28:41.502Z,99546.78
2022-08-03T17:30:02.578Z,99549.50
2022-08-03T17:32:32.474Z,99543.72
2022-08-03T17:35:01.156Z,99549.31
2022-08-03T17:37:57.880Z,99560.78
2022-08-03T17:44:12.735Z,99566.22
2022-08-03T17:45:52.866Z,99566.53
2022-08-03T17:48:21.515Z,99559.50
2022-08-03T17:50:58.853Z,99572.38
2022-08-03T17:53:31.770Z,99575.19
2022-08-03T17:56:42.555Z,99585.81
2022-08-03T18:02:31.061Z,99594.75
2022-08-03T18:05:16.708Z,99598.06
2022-08-03T18:08:00.800Z,99602.00
2022-08-03T18:10:35.272Z,99617.31
2022-08-03T18:13:30.205Z,99612.19
2022-08-03T18:16:02.363Z,99621.50
2022-08-03T18:18:36.687Z,99504.59
2022-08-03T18:21:09.395Z,99625.59
2022-08-03T18:23:50.946Z,99632.13
2022-08-03T18:26:18.911Z,99645.63
2022-08-03T18:28:48.614Z,99638.28
2022-08-03T18:31:33.106Z,99651.69
2022-08-03T18:34:17.078Z,99650.47
2022-08-03T18:36:52.863Z,99657.50
2022-08-03T18:39:22.977Z,99646.28
2022-08-03T18:41:49.781Z,99670.69
2022-08-03T18:44:52.511Z,99677.00
2022-08-03T18:47:16.112Z,99670.94
2022-08-03T18:50:12.555Z,99676.69
2022-08-03T18:53:19.487Z,99677.38
2022-08-03T18:56:02.279Z,99678.66
2022-08-03T18:58:51.458Z,99677.44
2022-08-03T19:02:04.133Z,99684.28
2022-08-03T19:04:48.269Z,99684.66
2022-08-03T19:07:23.324Z,99681.09
2022-08-03T19:09:59.166Z,99687.47
2022-08-03T19:12:41.927Z,99687.38
2022-08-03T19:15:15.742Z,99692.81
2022-08-03T19:17:53.690Z,99694.88
2022-08-03T19:20:26.434Z,99670.81
2022-08-03T19:22:57.303Z,99694.56
2022-08-03T19:25:34.551Z,99688.31
2022-08-03T19:28:04.199Z,99701.72
2022-08-03T19:30:38.571Z,99702.97
2022-08-03T19:33:14.666Z,99708.69
2022-08-03T19:35:54.904Z,99709.84
2022-08-03T19:38:28.516Z,99717.56
2022-08-03T19:41:02.549Z,99709.94
2022-08-03T19:43:53.040Z,99709.94
2022-08-03T19:46:21.840Z,99709.19
2022-08-03T19:49:15.649Z,99711.41
2022-08-03T19:51:58.606Z,99711.72
2022-08-03T19:54:39.644Z,99707.06
2022-08-03T19:57:24.589Z,99711.22
2022-08-03T19:59:53.670Z,99715.81
2022-08-03T20:02:26.637Z,99702.84
2022-08-03T20:04:59.684Z,99717.50
2022-08-03T20:07:28.861Z,99718.94
2022-08-03T20:09:59.730Z,99719.66
2022-08-03T20:12:29.564Z,99721.28
2022-08-03T20:14:57.990Z,99711.28
2022-08-03T20:17:55.299Z,99714.81
2022-08-03T20:20:12.412Z,99713.56
2022-08-03T20:22:45.494Z,99710.56
2022-08-03T20:25:16.407Z,99719.59
2022-08-03T20:28:08.211Z,99708.00
2022-08-03T20:30:39.103Z,99723.44
2022-08-03T20:33:09.462Z,99717.25
2022-08-03T20:35:36.226Z,99719.38
2022-08-03T20:38:03.526Z,99728.59
2022-08-03T20:40:30.321Z,99726.22
2022-08-03T20:42:57.038Z,99729.50
2022-08-03T20:45:59.965Z,99728.38
2022-08-03T20:48:10.707Z,99730.31
2022-08-03T20:50:41.450Z,99725.72
2022-08-03T20:53:41.294Z,99732.22
2022-08-03T20:56:05.338Z,99721.69
2022-08-03T20:58:36.113Z,99726.28
2022-08-03T21:01:03.306Z,99731.66
2022-08-03T21:03:40.531Z,99719.09
2022-08-03T21:06:10.267Z,99729.28
2022-08-03T21:08:46.864Z,99721.81
2022-08-03T21:11:18.389Z,99721.50
2022-08-03T21:12:59.179Z,99565.31
2022-08-03T21:13:05.166Z,99587.75
2022-08-03T21:14:09.065Z,99722.81
2022-08-03T21:16:39.071Z,99726.19
2022-08-03T21:19:06.509Z,99726.75
2022-08-03T21:21:37.302Z,99727.16
2022-08-03T21:24:05.836Z,99728.53
2022-08-03T21:26:37.402Z,99710.69
2022-08-03T21:29:04.280Z,99722.91
2022-08-03T21:31:31.156Z,99732.06
2022-08-03T21:34:01.140Z,99712.91
2022-08-03T21:36:30.248Z,99737.19
2022-08-03T21:38:58.022Z,99725.84
2022-08-03T21:41:30.191Z,99731.78
2022-08-03T21:43:57.427Z,99735.53
2022-08-03T21:46:26.147Z,99724.53
2022-08-03T21:50:05.267Z,99713.47
2022-08-03T21:51:50.236Z,99720.78
2022-08-03T21:54:20.158Z,99724.59
2022-08-03T21:56:48.213Z,99718.09
2022-08-03T21:59:19.840Z,99725.66
2022-08-03T22:01:55.409Z,99719.72
2022-08-03T22:04:50.867Z,99723.75
2022-08-03T22:07:13.759Z,99729.09
2022-08-03T22:09:40.954Z,99723.66
2022-08-03T22:12:23.830Z,99721.00
2022-08-03T22:15:00.597Z,99740.81
2022-08-03T22:17:55.937Z,99728.38
2022-08-03T22:20:21.581Z,99732.97
2022-08-03T22:22:55.498Z,99730.28
2022-08-03T22:25:31.600Z,99730.53
2022-08-03T22:28:01.588Z,99737.06
2022-08-03T22:30:28.941Z,99735.44
2022-08-03T22:32:56.462Z,99718.63
2022-08-03T22:35:25.872Z,99735.13
2022-08-03T22:37:58.567Z,99724.59
2022-08-03T22:40:26.545Z,99725.97
2022-08-03T22:42:54.509Z,99726.22
2022-08-03T22:46:07.275Z,99700.25
2022-08-03T22:48:08.956Z,99721.34
2022-08-03T22:50:36.050Z,99725.16
2022-08-03T22:53:03.652Z,99720.78
2022-08-03T22:55:31.192Z,99725.41
2022-08-03T22:57:58.091Z,99720.25
2022-08-03T23:00:25.052Z,99724.06
2022-08-03T23:02:54.093Z,99728.38
2022-08-03T23:06:00.575Z,99718.38
2022-08-03T23:08:15.395Z,99723.25
2022-08-03T23:10:46.991Z,99718.91
2022-08-03T23:13:19.688Z,99724.31
2022-08-03T23:15:57.202Z,99723.25
2022-08-03T23:18:25.479Z,99705.94
2022-08-03T23:20:53.639Z,99712.94
2022-08-03T23:23:23.499Z,99712.41
2022-08-03T23:25:51.683Z,99712.13
2022-08-03T23:28:19.322Z,99700.50
2022-08-03T23:30:47.470Z,99702.41
2022-08-03T23:33:16.496Z,99709.69
2022-08-03T23:36:29.295Z,99701.59
2022-08-03T23:38:47.625Z,99691.84
2022-08-03T23:41:17.732Z,99695.38
2022-08-03T23:43:53.900Z,99699.97
2022-08-03T23:46:22.771Z,99701.88
2022-08-03T23:48:51.081Z,99702.41
2022-08-03T23:51:42.371Z,99701.88
2022-08-03T23:54:40.762Z,99705.91
2022-08-03T23:57:25.767Z,99707.78
